Christchurch, New Zealand
Current Conditions -  °F | °C
As of 4:30 PM on Sunday 26 Oct 2014 (Local Time) from NZCH Reporting Station
Clear Clear  
Wind Chill: 14°   Ceiling: Unl
Heat Index: 14°   Visibility: 6mi
Dew Point:   Wind: 21mph
Humidity: 67%   Direction: 190°S
Pressure: 29.74"   Gusts: NA
Location:  43.53°S, 172.64°E
Report Text: NZCH 260430Z AUTO 19018KT 9999 NCD 14/08 Q1007 NOSIG
Loading
Personal Weather Stations






























Interactive Weather Map
Tropical Storm Tracking
New forecast layout! Learn more

10-Day Weather Forecast

Advertisements
Track Severe Weather on mobile